Time;durP1;ratioP1;P1;durP2;ratioP2;P2;SDS_P1;SDS_P2;PMS_P1;PMS_P2;Temp;Humidity;BMP_temperature;BMP_pressure;BME280_temperature;BME280_humidity;BME280_pressure;Samples;Min_cycle;Max_cycle;Signal;HPM_P1;HPM_P2
2022/07/11 00:09:31;;;;;;;4.22;2.33;;;;;;;;;;21164190;28;20503;-59
2022/07/11 00:19:32;;;;;;;3.20;1.80;;;;;;;;;;21179425;28;20453;-59
2022/07/11 00:29:35;;;;;;;3.28;1.70;;;;;;;;;;21178945;28;20055;-60
2022/07/11 00:39:36;;;;;;;2.42;1.83;;;;;;;;;;21178332;28;20056;-59
2022/07/11 00:49:38;;;;;;;3.33;1.55;;;;;;;;;;21176443;28;20048;-61
2022/07/11 00:59:39;;;;;;;3.22;1.67;;;;;;;;;;21175488;28;20047;-58
2022/07/11 01:09:41;;;;;;;3.03;1.83;;;;;;;;;;21175808;28;20407;-60
2022/07/11 01:19:43;;;;;;;4.15;1.90;;;;;;;;;;21175060;28;20059;-60
2022/07/11 01:29:46;;;;;;;4.60;2.15;;;;;;;;;;21174686;28;20101;-59
2022/07/11 01:39:48;;;;;;;6.13;3.30;;;;;;;;;;21174598;28;20080;-60
2022/07/11 01:49:52;;;;;;;5.65;4.25;;;;;;;;;;21171924;28;20043;-59
2022/07/11 01:59:58;;;;;;;7.13;3.22;;;;;;;;;;21154464;28;20054;-61
2022/07/11 02:10:06;;;;;;;5.47;2.53;;;;;;;;;;21170719;28;20457;-59
2022/07/11 02:20:11;;;;;;;5.10;2.85;;;;;;;;;;21170786;28;20131;-60
2022/07/11 02:30:15;;;;;;;4.07;2.75;;;;;;;;;;21168683;28;20109;-61
2022/07/11 02:40:17;;;;;;;5.28;2.22;;;;;;;;;;21166802;28;20051;-61
2022/07/11 02:50:20;;;;;;;5.57;2.40;;;;;;;;;;21167759;28;20059;-59
2022/07/11 03:00:22;;;;;;;6.85;2.40;;;;;;;;;;21166444;28;20060;-59
2022/07/11 03:10:24;;;;;;;5.13;2.95;;;;;;;;;;21164918;28;20051;-59
2022/07/11 03:20:26;;;;;;;5.72;2.50;;;;;;;;;;21165163;28;20074;-60
2022/07/11 03:30:28;;;;;;;4.35;2.70;;;;;;;;;;21164269;28;20454;-60
2022/07/11 03:40:31;;;;;;;4.95;2.25;;;;;;;;;;21164385;28;20058;-60
2022/07/11 03:50:33;;;;;;;4.07;2.40;;;;;;;;;;21163544;27;20499;-60
2022/07/11 04:00:35;;;;;;;4.50;2.60;;;;;;;;;;21162928;28;20052;-60
2022/07/11 04:10:37;;;;;;;7.47;2.53;;;;;;;;;;21163071;28;20063;-58
2022/07/11 04:20:39;;;;;;;5.40;2.50;;;;;;;;;;21163185;28;20059;-58
2022/07/11 04:30:42;;;;;;;8.05;3.00;;;;;;;;;;21162699;28;20116;-58
2022/07/11 04:40:44;;;;;;;3.45;2.70;;;;;;;;;;21143680;28;20459;-59
2022/07/11 04:50:48;;;;;;;5.72;3.10;;;;;;;;;;21161459;28;20075;-60
2022/07/11 05:00:51;;;;;;;4.85;2.72;;;;;;;;;;21171259;28;20056;-60
2022/07/11 05:10:52;;;;;;;5.10;2.72;;;;;;;;;;21174801;28;20050;-57
2022/07/11 05:20:54;;;;;;;7.43;2.85;;;;;;;;;;21174968;28;20048;-58
2022/07/11 05:30:56;;;;;;;4.60;2.67;;;;;;;;;;21173907;28;20040;-59
2022/07/11 05:40:59;;;;;;;4.60;2.53;;;;;;;;;;21172869;28;20488;-58
2022/07/11 05:51:01;;;;;;;4.38;2.60;;;;;;;;;;21172089;28;20178;-58
2022/07/11 06:01:03;;;;;;;6.18;3.05;;;;;;;;;;21171360;28;20047;-63
2022/07/11 06:11:05;;;;;;;7.25;3.40;;;;;;;;;;21168965;28;20048;-57
2022/07/11 06:21:07;;;;;;;9.45;4.15;;;;;;;;;;21170325;28;20079;-60
2022/07/11 06:31:09;;;;;;;7.38;2.85;;;;;;;;;;21168615;28;20118;-57
2022/07/11 06:41:10;;;;;;;6.25;2.40;;;;;;;;;;21167678;28;20051;-58
2022/07/11 06:51:12;;;;;;;4.70;2.80;;;;;;;;;;21168056;28;20051;-58
2022/07/11 07:01:14;;;;;;;4.40;2.58;;;;;;;;;;21165810;28;20048;-58
2022/07/11 07:11:15;;;;;;;7.20;2.88;;;;;;;;;;21146616;28;20457;-59
2022/07/11 07:21:17;;;;;;;4.55;2.53;;;;;;;;;;21164603;28;20094;-58
2022/07/11 07:31:18;;;;;;;7.03;3.10;;;29.40;34.30;;;;;;21164196;28;20128;-59
2022/07/11 07:41:20;;;;;;;14.93;3.50;;;29.60;33.70;;;;;;21163811;28;20467;-59
2022/07/11 07:51:22;;;;;;;7.28;2.40;;;29.60;33.40;;;;;;21162789;28;20553;-60
2022/07/11 08:01:35;;;;;;;5.95;3.30;;;29.90;32.90;;;;;;21162715;28;20051;-59
2022/07/11 08:11:37;;;;;;;7.03;2.70;;;30.00;33.10;;;;;;21162450;28;20499;-60
2022/07/11 08:21:39;;;;;;;8.80;3.17;;;30.40;32.20;;;;;;21163153;28;20441;-59
2022/07/11 08:31:41;;;;;;;6.00;2.35;;;30.20;32.80;;;;;;21165410;28;20134;-59
2022/07/11 08:41:44;;;;;;;7.90;2.80;;;30.10;32.60;;;;;;21178487;28;20051;-59
2022/07/11 08:51:47;;;;;;;8.98;2.70;;;30.00;33.00;;;;;;21177348;28;20122;-59
2022/07/11 09:01:53;;;;;;;6.85;3.00;;;30.20;32.20;;;;;;21176662;28;20463;-59
2022/07/11 09:11:56;;;;;;;5.32;2.33;;;31.00;31.50;;;;;;21175402;28;20109;-58
2022/07/11 09:32:52;;;;;;;8.65;3.33;;;31.50;30.30;;;;;;21175109;28;20047;-58
2022/07/11 09:42:57;;;;;;;9.90;3.00;;;31.90;29.90;;;;;;21200434;27;20043;-56
2022/07/11 09:53:02;;;;;;;7.00;3.17;;;32.10;30.10;;;;;;21237813;27;20054;-61
2022/07/11 10:03:07;;;;;;;4.10;2.70;;;31.80;30.10;;;;;;21248997;27;20076;-60
2022/07/11 10:13:09;;;;;;;5.25;3.03;;;31.80;30.00;;;;;;21255264;27;20100;-60
2022/07/11 10:23:44;;;;;;;8.18;3.35;;;31.80;29.60;;;;;;21254615;27;20104;-57
2022/07/11 10:34:10;;;;;;;7.00;3.03;;;31.80;29.60;;;;;;21253022;27;20051;-60
2022/07/11 10:44:12;;;;;;;7.60;2.90;;;32.00;29.30;;;;;;21252894;27;20115;-58
2022/07/11 10:54:19;;;;;;;6.65;2.90;;;32.00;29.10;;;;;;21251194;27;20058;-57
2022/07/11 11:04:44;;;;;;;7.28;2.85;;;32.10;28.60;;;;;;21250484;27;20047;-57
2022/07/11 11:14:46;;;;;;;9.18;3.40;;;32.10;28.40;;;;;;21249928;27;20115;-56
2022/07/11 11:24:49;;;;;;;9.82;3.55;;;32.30;28.50;;;;;;21249992;27;20440;-57
2022/07/11 11:34:51;;;;;;;7.30;2.90;;;32.50;27.80;;;;;;21173446;27;20076;-56
2022/07/11 11:44:54;;;;;;;7.63;3.22;;;32.60;27.60;;;;;;21209214;27;20169;-56
2022/07/11 11:54:58;;;;;;;7.30;2.90;;;32.90;26.90;;;;;;21210891;27;20047;-56
2022/07/11 12:05:07;;;;;;;10.00;3.33;;;33.10;26.80;;;;;;21166125;27;20079;-54
2022/07/11 12:15:22;;;;;;;10.40;3.20;;;33.60;26.50;;;;;;21265621;27;20057;-57
2022/07/11 12:25:24;;;;;;;6.70;3.20;;;33.70;26.10;;;;;;21241812;27;20042;-56
2022/07/11 12:35:25;;;;;;;8.20;3.22;;;34.10;25.00;;;;;;21263008;27;20104;-61
2022/07/11 12:45:27;;;;;;;9.50;3.25;;;34.30;25.30;;;;;;21348850;27;20046;-60
2022/07/11 12:55:34;;;;;;;7.93;3.10;;;34.50;24.90;;;;;;21347506;27;20047;-58
2022/07/11 13:05:51;;;;;;;11.50;3.83;;;34.60;24.90;;;;;;21347459;27;20474;-58
2022/07/11 13:15:54;;;;;;;7.20;3.72;;;34.90;23.80;;;;;;21345873;27;20050;-59
2022/07/11 13:25:58;;;;;;;6.80;3.67;;;35.10;23.90;;;;;;21327805;27;20050;-58
2022/07/11 13:36:00;;;;;;;6.38;3.58;;;35.30;23.10;;;;;;21344402;27;20051;-59
2022/07/11 13:46:02;;;;;;;9.50;3.90;;;35.40;23.00;;;;;;21344329;27;20082;-61
2022/07/11 13:56:04;;;;;;;5.50;3.60;;;35.40;22.90;;;;;;21341815;27;20051;-59
2022/07/11 14:06:06;;;;;;;7.47;3.72;;;35.60;22.10;;;;;;21341211;27;20581;-63
2022/07/11 14:16:08;;;;;;;5.80;3.67;;;35.80;22.10;;;;;;21341755;27;20051;-61
2022/07/11 14:26:10;;;;;;;4.95;3.65;;;36.00;22.00;;;;;;21339934;27;20043;-63
2022/07/11 14:36:12;;;;;;;5.32;3.08;;;36.10;21.20;;;;;;21338035;27;20053;-63
2022/07/11 14:46:16;;;;;;;5.65;2.85;;;36.30;20.60;;;;;;21321816;27;20039;-63
2022/07/11 14:56:17;;;;;;;5.68;2.55;;;36.40;20.20;;;;;;21338441;27;20043;-62
2022/07/11 15:06:20;;;;;;;6.55;3.40;;;36.50;19.90;;;;;;21336957;27;20042;-57
2022/07/11 15:16:22;;;;;;;7.55;3.28;;;36.60;19.30;;;;;;21337371;27;20043;-60
2022/07/11 15:26:24;;;;;;;6.78;2.97;;;36.70;18.60;;;;;;21336160;27;20487;-59
2022/07/11 15:36:26;;;;;;;7.03;3.30;;;36.60;18.90;;;;;;21336181;27;20425;-62
2022/07/11 15:46:28;;;;;;;5.38;3.40;;;36.80;17.60;;;;;;21333766;27;20134;-60
2022/07/11 15:56:29;;;;;;;5.35;3.78;;;36.90;17.80;;;;;;21333215;27;20142;-60
2022/07/11 16:06:34;;;;;;;3.85;3.35;;;36.90;18.20;;;;;;21334608;27;20055;-60
2022/07/11 16:16:35;;;;;;;5.32;3.65;;;36.90;17.80;;;;;;21334719;27;20435;-58
2022/07/11 16:26:37;;;;;;;5.05;3.50;;;37.10;17.70;;;;;;21333659;27;20534;-59
2022/07/11 16:36:39;;;;;;;4.95;4.38;;;36.90;17.80;;;;;;21331696;27;20103;-61
2022/07/11 16:46:41;;;;;;;6.00;3.50;;;37.20;17.30;;;;;;21331799;27;20070;-61
2022/07/11 16:56:43;;;;;;;5.40;3.60;;;37.00;17.40;;;;;;21341632;27;20057;-60
2022/07/11 17:06:45;;;;;;;5.38;3.80;;;36.90;17.40;;;;;;21346241;27;20046;-60
2022/07/11 17:16:46;;;;;;;5.35;3.65;;;36.80;17.90;;;;;;21327668;27;20411;-59
2022/07/11 17:26:48;;;;;;;6.38;3.60;;;36.80;18.10;;;;;;21344995;27;20174;-59
2022/07/11 17:36:51;;;;;;;8.68;3.70;;;36.80;17.60;;;;;;21344081;27;20047;-60
2022/07/11 17:46:52;;;;;;;7.13;3.38;;;36.70;17.40;;;;;;21343687;27;20047;-59
2022/07/11 17:56:54;;;;;;;6.65;4.00;;;36.60;18.50;;;;;;21342584;27;20490;-58
2022/07/11 18:06:56;;;;;;;5.88;3.95;;;36.50;18.10;;;;;;21341323;27;20093;-59
2022/07/11 18:16:59;;;;;;;6.45;3.67;;;36.30;18.80;;;;;;21343329;27;20073;-60
2022/07/11 18:27:01;;;;;;;10.38;4.18;;;36.20;18.90;;;;;;21340772;27;20455;-60
2022/07/11 18:37:03;;;;;;;12.50;4.53;;;36.00;19.20;;;;;;21340519;27;20042;-60
2022/07/11 18:47:06;;;;;;;6.18;4.05;;;35.70;19.50;;;;;;21340366;27;20456;-58
2022/07/11 18:57:07;;;;;;;11.13;6.65;;;35.60;19.70;;;;;;21340971;27;20107;-62
2022/07/11 19:07:09;;;;;;;6.05;3.78;;;35.50;19.90;;;;;;21342117;27;20570;-60
2022/07/11 19:17:11;;;;;;;8.25;4.30;;;35.40;19.60;;;;;;21338916;27;20146;-64
2022/07/11 19:27:12;;;;;;;4.88;3.95;;;35.10;20.90;;;;;;21339666;27;20121;-58
2022/07/11 19:37:14;;;;;;;6.22;4.90;;;34.80;20.70;;;;;;21336774;27;20042;-60
2022/07/11 19:47:15;;;;;;;7.50;4.70;;;34.50;21.00;;;;;;21335471;27;20057;-64
2022/07/11 19:57:22;;;;;;;6.45;4.60;;;34.20;21.10;;;;;;21335496;27;20130;-62
2022/07/11 20:07:24;;;;;;;6.90;4.78;;;33.90;21.50;;;;;;21334738;27;20043;-63
2022/07/11 20:17:27;;;;;;;5.55;4.82;;;33.70;21.60;;;;;;21314638;27;20054;-63
2022/07/11 20:27:29;;;;;;;8.27;6.10;;;33.50;21.90;;;;;;21317974;27;20074;-64
2022/07/11 20:37:30;;;;;;;7.43;5.30;;;33.30;22.50;;;;;;21349625;27;20046;-58
2022/07/11 20:47:31;;;;;;;6.68;5.53;;;33.30;22.20;;;;;;21348331;27;20046;-60
2022/07/11 20:57:33;;;;;;;9.48;5.93;;;33.30;22.50;;;;;;21348718;27;20054;-64
2022/07/11 21:07:34;;;;;;;6.68;5.47;;;33.10;22.70;;;;;;21347611;27;20070;-62
2022/07/11 21:17:36;;;;;;;13.25;6.40;;;33.10;23.20;;;;;;21346411;27;20076;-63
2022/07/11 21:27:37;;;;;;;5.70;3.75;;;33.10;23.20;;;;;;21326762;27;20046;-63
2022/07/11 21:37:39;;;;;;;5.75;3.70;;;32.90;23.20;;;;;;21344904;27;20051;-66
2022/07/11 21:47:40;;;;;;;7.40;4.72;;;33.00;23.20;;;;;;21343768;27;20043;-63
2022/07/11 21:57:41;;;;;;;5.05;3.20;;;32.90;23.20;;;;;;21325701;27;20097;-63
2022/07/11 22:07:43;;;;;;;8.68;3.45;;;33.00;22.30;;;;;;21342919;27;20054;-61
2022/07/11 22:17:44;;;;;;;7.03;2.80;;;32.90;22.60;;;;;;21341295;27;20081;-66
2022/07/11 22:27:45;;;;;;;8.15;3.47;;;32.80;22.70;;;;;;21340799;27;20043;-65
2022/07/11 22:37:47;;;;;;;11.77;2.67;;;32.70;22.70;;;;;;21339379;27;20047;-62
2022/07/11 22:47:49;;;;;;;5.75;2.38;;;32.50;23.10;;;;;;21339032;27;20104;-59
2022/07/11 22:57:51;;;;;;;5.53;2.45;;;32.30;23.50;;;;;;21337932;27;20078;-65
2022/07/11 23:07:52;;;;;;;8.07;2.20;;;32.20;23.80;;;;;;21336591;27;20055;-62
2022/07/11 23:17:53;;;;;;;6.80;2.05;;;32.10;24.00;;;;;;21337353;27;20490;-63
2022/07/11 23:27:55;;;;;;;3.50;2.00;;;32.00;24.30;;;;;;21335513;27;20391;-63
2022/07/11 23:37:56;;;;;;;5.13;1.77;;;31.90;24.50;;;;;;21336092;27;20051;-64
2022/07/11 23:47:58;;;;;;;4.50;2.00;;;31.70;24.80;;;;;;21336168;27;20498;-61
2022/07/11 23:57:59;;;;;;;4.78;2.25;;;31.60;24.80;;;;;;21334116;27;20101;-62
